sensor_id;sensor_type;location;lat;lon;timestamp;pressure;altitude;pressure_sealevel;temperature
68440;BMP180;55421;51.600;5.718;2023-06-22T00:00:58;226276.59;;;21.00
68440;BMP180;55421;51.600;5.718;2023-06-22T00:03:32;226255.41;;;21.00
68440;BMP180;55421;51.600;5.718;2023-06-22T00:05:58;226226.59;;;20.98
68440;BMP180;55421;51.600;5.718;2023-06-22T00:08:25;226190.41;;;20.90
68440;BMP180;55421;51.600;5.718;2023-06-22T00:10:52;226166.80;;;20.84
68440;BMP180;55421;51.600;5.718;2023-06-22T00:13:18;226147.59;;;20.80
68440;BMP180;55421;51.600;5.718;2023-06-22T00:15:45;226147.59;;;20.80
68440;BMP180;55421;51.600;5.718;2023-06-22T00:18:12;226146.00;;;20.80
68440;BMP180;55421;51.600;5.718;2023-06-22T00:20:41;226136.59;;;20.80
68440;BMP180;55421;51.600;5.718;2023-06-22T00:23:08;226140.80;;;20.80
68440;BMP180;55421;51.600;5.718;2023-06-22T00:25:38;226144.41;;;20.80
68440;BMP180;55421;51.600;5.718;2023-06-22T00:28:08;226140.20;;;20.80
68440;BMP180;55421;51.600;5.718;2023-06-22T00:30:36;226121.41;;;20.80
68440;BMP180;55421;51.600;5.718;2023-06-22T00:33:02;226101.00;;;20.70
68440;BMP180;55421;51.600;5.718;2023-06-22T00:35:29;226091.80;;;20.70
68440;BMP180;55421;51.600;5.718;2023-06-22T00:37:57;226073.80;;;20.70
68440;BMP180;55421;51.600;5.718;2023-06-22T00:40:33;226056.59;;;20.70
68440;BMP180;55421;51.600;5.718;2023-06-22T00:43:00;226050.20;;;20.62
68440;BMP180;55421;51.600;5.718;2023-06-22T00:45:27;226053.41;;;20.66
68440;BMP180;55421;51.600;5.718;2023-06-22T00:47:57;226058.20;;;20.70
68440;BMP180;55421;51.600;5.718;2023-06-22T00:50:29;226063.00;;;20.70
68440;BMP180;55421;51.600;5.718;2023-06-22T00:53:04;226058.20;;;20.64
68440;BMP180;55421;51.600;5.718;2023-06-22T00:55:52;226034.20;;;20.60
68440;BMP180;55421;51.600;5.718;2023-06-22T00:58:19;226032.20;;;20.60
68440;BMP180;55421;51.600;5.718;2023-06-22T01:00:48;226025.00;;;20.60
68440;BMP180;55421;51.600;5.718;2023-06-22T01:03:15;226017.80;;;20.60
68440;BMP180;55421;51.600;5.718;2023-06-22T01:05:43;226009.00;;;20.60
68440;BMP180;55421;51.600;5.718;2023-06-22T01:08:41;226013.00;;;20.60
68440;BMP180;55421;51.600;5.718;2023-06-22T01:11:23;226003.80;;;20.60
68440;BMP180;55421;51.600;5.718;2023-06-22T01:14:04;226002.59;;;20.56
68440;BMP180;55421;51.600;5.718;2023-06-22T01:16:35;225972.41;;;20.50
68440;BMP180;55421;51.600;5.718;2023-06-22T01:19:39;225954.20;;;20.50
68440;BMP180;55421;51.600;5.718;2023-06-22T01:22:10;225930.20;;;20.40
68440;BMP180;55421;51.600;5.718;2023-06-22T01:25:12;225906.20;;;20.40
68440;BMP180;55421;51.600;5.718;2023-06-22T01:27:56;225898.20;;;20.40
68440;BMP180;55421;51.600;5.718;2023-06-22T01:30:29;225883.80;;;20.40
68440;BMP180;55421;51.600;5.718;2023-06-22T01:32:58;225880.59;;;20.30
68440;BMP180;55421;51.600;5.718;2023-06-22T01:35:25;225875.80;;;20.30
68440;BMP180;55421;51.600;5.718;2023-06-22T01:37:53;225877.41;;;20.30
68440;BMP180;55421;51.600;5.718;2023-06-22T01:40:21;225870.20;;;20.30
68440;BMP180;55421;51.600;5.718;2023-06-22T01:42:50;225870.20;;;20.30
68440;BMP180;55421;51.600;5.718;2023-06-22T01:45:18;225867.80;;;20.30
68440;BMP180;55421;51.600;5.718;2023-06-22T01:47:45;225870.20;;;20.30
68440;BMP180;55421;51.600;5.718;2023-06-22T01:50:12;225863.80;;;20.30
68440;BMP180;55421;51.600;5.718;2023-06-22T01:52:38;225857.00;;;20.30
68440;BMP180;55421;51.600;5.718;2023-06-22T01:55:06;225842.20;;;20.30
68440;BMP180;55421;51.600;5.718;2023-06-22T01:57:35;225822.00;;;20.20
68440;BMP180;55421;51.600;5.718;2023-06-22T02:00:07;225801.59;;;20.20
68440;BMP180;55421;51.600;5.718;2023-06-22T02:03:01;225788.00;;;20.20
68440;BMP180;55421;51.600;5.718;2023-06-22T02:06:13;225784.41;;;20.20
68440;BMP180;55421;51.600;5.718;2023-06-22T02:08:55;225782.41;;;20.20
68440;BMP180;55421;51.600;5.718;2023-06-22T02:11:25;225773.59;;;20.12
68440;BMP180;55421;51.600;5.718;2023-06-22T02:13:55;225765.59;;;20.10
68440;BMP180;55421;51.600;5.718;2023-06-22T02:16:23;225754.00;;;20.10
68440;BMP180;55421;51.600;5.718;2023-06-22T02:18:51;225740.00;;;20.10
68440;BMP180;55421;51.600;5.718;2023-06-22T02:21:19;225731.20;;;20.10
68440;BMP180;55421;51.600;5.718;2023-06-22T02:23:47;225740.00;;;20.10
68440;BMP180;55421;51.600;5.718;2023-06-22T02:26:16;225738.80;;;20.10
68440;BMP180;55421;51.600;5.718;2023-06-22T02:28:44;225726.80;;;20.10
68440;BMP180;55421;51.600;5.718;2023-06-22T02:31:11;225714.59;;;20.02
68440;BMP180;55421;51.600;5.718;2023-06-22T02:33:38;225700.59;;;20.00
68440;BMP180;55421;51.600;5.718;2023-06-22T02:36:04;225692.59;;;20.00
68440;BMP180;55421;51.600;5.718;2023-06-22T02:38:31;225692.59;;;20.00
68440;BMP180;55421;51.600;5.718;2023-06-22T02:41:01;225667.00;;;20.00
68440;BMP180;55421;51.600;5.718;2023-06-22T02:43:28;225645.80;;;19.92
68440;BMP180;55421;51.600;5.718;2023-06-22T02:45:55;225609.20;;;19.90
68440;BMP180;55421;51.600;5.718;2023-06-22T02:48:22;225566.00;;;19.80
68440;BMP180;55421;51.600;5.718;2023-06-22T02:50:48;225539.59;;;19.70
68440;BMP180;55421;51.600;5.718;2023-06-22T02:53:14;225520.41;;;19.70
68440;BMP180;55421;51.600;5.718;2023-06-22T02:55:41;225515.59;;;19.70
68440;BMP180;55421;51.600;5.718;2023-06-22T02:58:08;225522.00;;;19.70
68440;BMP180;55421;51.600;5.718;2023-06-22T03:00:34;225536.41;;;19.70
68440;BMP180;55421;51.600;5.718;2023-06-22T03:03:01;225552.00;;;19.72
68440;BMP180;55421;51.600;5.718;2023-06-22T03:05:28;225552.00;;;19.80
68440;BMP180;55421;51.600;5.718;2023-06-22T03:07:54;225552.00;;;19.74
68440;BMP180;55421;51.600;5.718;2023-06-22T03:10:21;225534.00;;;19.70
68440;BMP180;55421;51.600;5.718;2023-06-22T03:12:47;225534.00;;;19.70
68440;BMP180;55421;51.600;5.718;2023-06-22T03:15:14;225523.59;;;19.70
68440;BMP180;55421;51.600;5.718;2023-06-22T03:17:40;225521.20;;;19.70
68440;BMP180;55421;51.600;5.718;2023-06-22T03:20:09;225522.00;;;19.70
68440;BMP180;55421;51.600;5.718;2023-06-22T03:22:38;225518.00;;;19.70
68440;BMP180;55421;51.600;5.718;2023-06-22T03:25:09;225511.20;;;19.70
68440;BMP180;55421;51.600;5.718;2023-06-22T03:27:42;225505.80;;;19.70
68440;BMP180;55421;51.600;5.718;2023-06-22T03:30:12;225498.80;;;19.70
68440;BMP180;55421;51.600;5.718;2023-06-22T03:32:39;225483.00;;;19.60
68440;BMP180;55421;51.600;5.718;2023-06-22T03:35:06;225465.80;;;19.60
68440;BMP180;55421;51.600;5.718;2023-06-22T03:37:33;225452.41;;;19.60
68440;BMP180;55421;51.600;5.718;2023-06-22T03:40:00;225444.80;;;19.60
68440;BMP180;55421;51.600;5.718;2023-06-22T03:42:26;225438.41;;;19.60
68440;BMP180;55421;51.600;5.718;2023-06-22T03:44:53;225419.20;;;19.50
68440;BMP180;55421;51.600;5.718;2023-06-22T03:47:19;225400.41;;;19.50
68440;BMP180;55421;51.600;5.718;2023-06-22T03:49:46;225357.20;;;19.40
68440;BMP180;55421;51.600;5.718;2023-06-22T03:52:12;225311.80;;;19.32
68440;BMP180;55421;51.600;5.718;2023-06-22T03:54:39;225290.20;;;19.30
68440;BMP180;55421;51.600;5.718;2023-06-22T03:57:06;225303.00;;;19.30
68440;BMP180;55421;51.600;5.718;2023-06-22T03:59:33;225320.00;;;19.38
68440;BMP180;55421;51.600;5.718;2023-06-22T04:01:59;225339.20;;;19.40
68440;BMP180;55421;51.600;5.718;2023-06-22T04:04:26;225348.00;;;19.40
68440;BMP180;55421;51.600;5.718;2023-06-22T04:06:52;225333.00;;;19.40
68440;BMP180;55421;51.600;5.718;2023-06-22T04:09:19;225311.80;;;19.30
68440;BMP180;55421;51.600;5.718;2023-06-22T04:11:45;225288.59;;;19.30
68440;BMP180;55421;51.600;5.718;2023-06-22T04:14:12;225277.41;;;19.30
68440;BMP180;55421;51.600;5.718;2023-06-22T04:16:38;225288.59;;;19.30
68440;BMP180;55421;51.600;5.718;2023-06-22T04:19:05;225313.41;;;19.32
68440;BMP180;55421;51.600;5.718;2023-06-22T04:21:31;225351.20;;;19.40
68440;BMP180;55421;51.600;5.718;2023-06-22T04:23:58;225380.80;;;19.50
68440;BMP180;55421;51.600;5.718;2023-06-22T04:26:24;225425.59;;;19.52
68440;BMP180;55421;51.600;5.718;2023-06-22T04:28:51;225491.00;;;19.64
68440;BMP180;55421;51.600;5.718;2023-06-22T04:31:22;225538.00;;;19.70
68440;BMP180;55421;51.600;5.718;2023-06-22T04:33:53;225622.00;;;19.90
68440;BMP180;55421;51.600;5.718;2023-06-22T04:36:20;225687.80;;;20.00
68440;BMP180;55421;51.600;5.718;2023-06-22T04:38:47;225764.00;;;20.10
68440;BMP180;55421;51.600;5.718;2023-06-22T04:41:14;225794.00;;;20.20
68440;BMP180;55421;51.600;5.718;2023-06-22T04:43:49;225790.00;;;20.20
68440;BMP180;55421;51.600;5.718;2023-06-22T04:46:20;225841.00;;;20.30
68440;BMP180;55421;51.600;5.718;2023-06-22T04:48:46;225887.00;;;20.34
68440;BMP180;55421;51.600;5.718;2023-06-22T04:51:13;225919.00;;;20.40
68440;BMP180;55421;51.600;5.718;2023-06-22T04:53:39;225936.59;;;20.40
68440;BMP180;55421;51.600;5.718;2023-06-22T04:56:08;225939.80;;;20.46
68440;BMP180;55421;51.600;5.718;2023-06-22T04:58:34;225943.00;;;20.48
68440;BMP180;55421;51.600;5.718;2023-06-22T05:01:01;225948.59;;;20.50
68440;BMP180;55421;51.600;5.718;2023-06-22T05:03:27;225987.41;;;20.50
68440;BMP180;55421;51.600;5.718;2023-06-22T05:05:54;225999.41;;;20.56
68440;BMP180;55421;51.600;5.718;2023-06-22T05:08:20;226034.20;;;20.60
68440;BMP180;55421;51.600;5.718;2023-06-22T05:10:47;226063.00;;;20.70
68440;BMP180;55421;51.600;5.718;2023-06-22T05:13:13;226090.20;;;20.70
68440;BMP180;55421;51.600;5.718;2023-06-22T05:15:40;226107.41;;;20.78
68440;BMP180;55421;51.600;5.718;2023-06-22T05:18:06;226125.80;;;20.80
68440;BMP180;55421;51.600;5.718;2023-06-22T05:20:33;226139.20;;;20.80
68440;BMP180;55421;51.600;5.718;2023-06-22T05:23:02;226176.80;;;20.90
68440;BMP180;55421;51.600;5.718;2023-06-22T05:25:29;226226.59;;;20.98
68440;BMP180;55421;51.600;5.718;2023-06-22T05:27:56;226300.59;;;21.10
68440;BMP180;55421;51.600;5.718;2023-06-22T05:30:23;226368.00;;;21.20
68440;BMP180;55421;51.600;5.718;2023-06-22T05:32:49;226432.00;;;21.30
68440;BMP180;55421;51.600;5.718;2023-06-22T05:35:16;226467.41;;;21.40
68440;BMP180;55421;51.600;5.718;2023-06-22T05:37:42;226467.41;;;21.40
68440;BMP180;55421;51.600;5.718;2023-06-22T05:40:09;226478.59;;;21.40
68440;BMP180;55421;51.600;5.718;2023-06-22T05:42:36;226467.41;;;21.40
68440;BMP180;55421;51.600;5.718;2023-06-22T05:45:04;226442.00;;;21.38
68440;BMP180;55421;51.600;5.718;2023-06-22T05:47:30;226432.00;;;21.30
68440;BMP180;55421;51.600;5.718;2023-06-22T05:49:57;226432.00;;;21.30
68440;BMP180;55421;51.600;5.718;2023-06-22T05:52:24;226419.20;;;21.30
68440;BMP180;55421;51.600;5.718;2023-06-22T05:54:51;226415.59;;;21.30
68440;BMP180;55421;51.600;5.718;2023-06-22T05:57:17;226403.20;;;21.30
68440;BMP180;55421;51.600;5.718;2023-06-22T05:59:44;226396.80;;;21.30
68440;BMP180;55421;51.600;5.718;2023-06-22T06:02:10;226411.20;;;21.30
68440;BMP180;55421;51.600;5.718;2023-06-22T06:04:37;226432.00;;;21.30
68440;BMP180;55421;51.600;5.718;2023-06-22T06:07:03;226459.41;;;21.40
68440;BMP180;55421;51.600;5.718;2023-06-22T06:09:30;226495.80;;;21.40
68440;BMP180;55421;51.600;5.718;2023-06-22T06:11:56;226501.20;;;21.40
68440;BMP180;55421;51.600;5.718;2023-06-22T06:14:23;226510.41;;;21.50
68440;BMP180;55421;51.600;5.718;2023-06-22T06:16:50;226531.20;;;21.50
68440;BMP180;55421;51.600;5.718;2023-06-22T06:19:16;226538.80;;;21.50
68440;BMP180;55421;51.600;5.718;2023-06-22T06:21:43;226560.00;;;21.52
68440;BMP180;55421;51.600;5.718;2023-06-22T06:24:10;226582.00;;;21.60
68440;BMP180;55421;51.600;5.718;2023-06-22T06:26:36;226596.41;;;21.60
68440;BMP180;55421;51.600;5.718;2023-06-22T06:29:03;226608.41;;;21.60
68440;BMP180;55421;51.600;5.718;2023-06-22T06:31:29;226626.00;;;21.70
68440;BMP180;55421;51.600;5.718;2023-06-22T06:33:56;226646.20;;;21.70
68440;BMP180;55421;51.600;5.718;2023-06-22T06:36:23;226659.00;;;21.70
68440;BMP180;55421;51.600;5.718;2023-06-22T06:38:49;226667.00;;;21.70
68440;BMP180;55421;51.600;5.718;2023-06-22T06:41:16;226679.80;;;21.80
68440;BMP180;55421;51.600;5.718;2023-06-22T06:43:43;226693.80;;;21.80
68440;BMP180;55421;51.600;5.718;2023-06-22T06:46:09;226722.59;;;21.80
68440;BMP180;55421;51.600;5.718;2023-06-22T06:48:36;226735.41;;;21.90
68440;BMP180;55421;51.600;5.718;2023-06-22T06:51:02;226751.41;;;21.90
68440;BMP180;55421;51.600;5.718;2023-06-22T06:53:29;226769.20;;;21.90
68440;BMP180;55421;51.600;5.718;2023-06-22T06:55:56;226788.00;;;21.96
68440;BMP180;55421;51.600;5.718;2023-06-22T06:58:23;226803.41;;;22.00
68440;BMP180;55421;51.600;5.718;2023-06-22T07:00:49;226798.41;;;22.00
68440;BMP180;55421;51.600;5.718;2023-06-22T07:03:16;226795.41;;;22.00
68440;BMP180;55421;51.600;5.718;2023-06-22T07:05:42;226812.59;;;22.00
68440;BMP180;55421;51.600;5.718;2023-06-22T07:08:09;226823.80;;;22.00
68440;BMP180;55421;51.600;5.718;2023-06-22T07:10:36;226827.00;;;22.00
68440;BMP180;55421;51.600;5.718;2023-06-22T07:13:03;226831.80;;;22.00
68440;BMP180;55421;51.600;5.718;2023-06-22T07:15:29;226851.00;;;22.10
68440;BMP180;55421;51.600;5.718;2023-06-22T07:17:56;226877.00;;;22.10
68440;BMP180;55421;51.600;5.718;2023-06-22T07:20:23;226886.59;;;22.10
68440;BMP180;55421;51.600;5.718;2023-06-22T07:22:49;226895.41;;;22.14
68440;BMP180;55421;51.600;5.718;2023-06-22T07:25:16;226900.20;;;22.16
68440;BMP180;55421;51.600;5.718;2023-06-22T07:27:59;226914.20;;;22.20
68440;BMP180;55421;51.600;5.718;2023-06-22T07:30:26;226945.20;;;22.20
68440;BMP180;55421;51.600;5.718;2023-06-22T07:32:53;226962.80;;;22.28
68440;BMP180;55421;51.600;5.718;2023-06-22T07:35:19;226986.80;;;22.30
68440;BMP180;55421;51.600;5.718;2023-06-22T07:37:46;227017.41;;;22.34
68440;BMP180;55421;51.600;5.718;2023-06-22T07:40:13;227041.41;;;22.40
68440;BMP180;55421;51.600;5.718;2023-06-22T07:42:39;227068.20;;;22.42
68440;BMP180;55421;51.600;5.718;2023-06-22T07:45:07;227087.80;;;22.50
68440;BMP180;55421;51.600;5.718;2023-06-22T07:47:34;227103.41;;;22.50
68440;BMP180;55421;51.600;5.718;2023-06-22T07:50:02;227125.59;;;22.56
68440;BMP180;55421;51.600;5.718;2023-06-22T07:52:30;227153.59;;;22.60
68440;BMP180;55421;51.600;5.718;2023-06-22T07:54:57;227177.20;;;22.66
68440;BMP180;55421;51.600;5.718;2023-06-22T07:57:23;227201.20;;;22.70
68440;BMP180;55421;51.600;5.718;2023-06-22T08:00:02;227230.00;;;22.70
68440;BMP180;55421;51.600;5.718;2023-06-22T08:02:32;227276.20;;;22.80
68440;BMP180;55421;51.600;5.718;2023-06-22T08:04:58;227324.41;;;22.90
68440;BMP180;55421;51.600;5.718;2023-06-22T08:07:26;227356.41;;;22.96
68440;BMP180;55421;51.600;5.718;2023-06-22T08:09:58;227370.80;;;23.00
68440;BMP180;55421;51.600;5.718;2023-06-22T08:12:25;227372.00;;;23.00
68440;BMP180;55421;51.600;5.718;2023-06-22T08:14:51;227367.59;;;22.98
68440;BMP180;55421;51.600;5.718;2023-06-22T08:17:18;227353.20;;;22.90
68440;BMP180;55421;51.600;5.718;2023-06-22T08:19:45;227376.00;;;23.00
68440;BMP180;55421;51.600;5.718;2023-06-22T08:22:11;227394.80;;;23.00
68440;BMP180;55421;51.600;5.718;2023-06-22T08:24:37;227420.00;;;23.10
68440;BMP180;55421;51.600;5.718;2023-06-22T08:27:07;227443.00;;;23.10
68440;BMP180;55421;51.600;5.718;2023-06-22T08:29:35;227475.80;;;23.18
68440;BMP180;55421;51.600;5.718;2023-06-22T08:32:03;227484.20;;;23.20
68440;BMP180;55421;51.600;5.718;2023-06-22T08:34:30;227495.00;;;23.20
68440;BMP180;55421;51.600;5.718;2023-06-22T08:36:57;227526.20;;;23.26
68440;BMP180;55421;51.600;5.718;2023-06-22T08:39:23;227556.41;;;23.30
68440;BMP180;55421;51.600;5.718;2023-06-22T08:41:50;227583.59;;;23.40
68440;BMP180;55421;51.600;5.718;2023-06-22T08:44:18;227629.00;;;23.42
68440;BMP180;55421;51.600;5.718;2023-06-22T08:46:45;227676.59;;;23.50
68440;BMP180;55421;51.600;5.718;2023-06-22T08:49:12;227741.80;;;23.60
68440;BMP180;55421;51.600;5.718;2023-06-22T08:51:38;227805.00;;;23.70
68440;BMP180;55421;51.600;5.718;2023-06-22T08:54:05;227846.20;;;23.80
68440;BMP180;55421;51.600;5.718;2023-06-22T08:56:32;227902.20;;;23.90
68440;BMP180;55421;51.600;5.718;2023-06-22T08:58:58;227939.20;;;24.00
68440;BMP180;55421;51.600;5.718;2023-06-22T09:01:25;227946.41;;;24.00
68440;BMP180;55421;51.600;5.718;2023-06-22T09:03:51;227940.00;;;24.00
68440;BMP180;55421;51.600;5.718;2023-06-22T09:06:22;227935.20;;;24.00
68440;BMP180;55421;51.600;5.718;2023-06-22T09:08:48;227913.41;;;23.90
68440;BMP180;55421;51.600;5.718;2023-06-22T09:11:15;227891.00;;;23.90
68440;BMP180;55421;51.600;5.718;2023-06-22T09:13:42;227879.80;;;23.90
68440;BMP180;55421;51.600;5.718;2023-06-22T09:16:08;227863.80;;;23.82
68440;BMP180;55421;51.600;5.718;2023-06-22T09:18:35;227835.41;;;23.80
68440;BMP180;55421;51.600;5.718;2023-06-22T09:21:02;227819.80;;;23.80
68440;BMP180;55421;51.600;5.718;2023-06-22T09:23:29;227789.80;;;23.70
68440;BMP180;55421;51.600;5.718;2023-06-22T09:25:55;227763.41;;;23.70
68440;BMP180;55421;51.600;5.718;2023-06-22T09:28:22;227737.00;;;23.60
68440;BMP180;55421;51.600;5.718;2023-06-22T09:30:48;227702.20;;;23.60
68440;BMP180;55421;51.600;5.718;2023-06-22T09:33:15;227673.41;;;23.50
68440;BMP180;55421;51.600;5.718;2023-06-22T09:35:41;227637.00;;;23.46
68440;BMP180;55421;51.600;5.718;2023-06-22T09:38:08;227615.59;;;23.40
68440;BMP180;55421;51.600;5.718;2023-06-22T09:40:34;227597.59;;;23.40
68440;BMP180;55421;51.600;5.718;2023-06-22T09:43:06;227583.59;;;23.36
68440;BMP180;55421;51.600;5.718;2023-06-22T09:45:32;227567.59;;;23.30
68440;BMP180;55421;51.600;5.718;2023-06-22T09:47:59;227550.00;;;23.30
68440;BMP180;55421;51.600;5.718;2023-06-22T09:50:26;227542.00;;;23.30
68440;BMP180;55421;51.600;5.718;2023-06-22T09:52:52;227520.41;;;23.30
68440;BMP180;55421;51.600;5.718;2023-06-22T09:55:22;227511.80;;;23.20
68440;BMP180;55421;51.600;5.718;2023-06-22T09:57:49;227501.41;;;23.20
68440;BMP180;55421;51.600;5.718;2023-06-22T10:00:17;227495.00;;;23.20
68440;BMP180;55421;51.600;5.718;2023-06-22T10:02:46;227493.80;;;23.20
68440;BMP180;55421;51.600;5.718;2023-06-22T10:05:16;227497.80;;;23.20
68440;BMP180;55421;51.600;5.718;2023-06-22T10:07:43;227505.80;;;23.20
68440;BMP180;55421;51.600;5.718;2023-06-22T10:10:12;227509.80;;;23.20
68440;BMP180;55421;51.600;5.718;2023-06-22T10:12:48;227507.41;;;23.20
68440;BMP180;55421;51.600;5.718;2023-06-22T10:15:21;227511.00;;;23.20
68440;BMP180;55421;51.600;5.718;2023-06-22T10:17:47;227515.00;;;23.20
68440;BMP180;55421;51.600;5.718;2023-06-22T10:20:14;227527.80;;;23.30
68440;BMP180;55421;51.600;5.718;2023-06-22T10:22:44;227543.59;;;23.30
68440;BMP180;55421;51.600;5.718;2023-06-22T10:25:12;227559.59;;;23.30
68440;BMP180;55421;51.600;5.718;2023-06-22T10:27:39;227567.59;;;23.30
68440;BMP180;55421;51.600;5.718;2023-06-22T10:30:11;227566.00;;;23.30
68440;BMP180;55421;51.600;5.718;2023-06-22T10:32:42;227566.00;;;23.30
68440;BMP180;55421;51.600;5.718;2023-06-22T10:35:09;227567.59;;;23.30
68440;BMP180;55421;51.600;5.718;2023-06-22T10:37:46;227578.80;;;23.34
68440;BMP180;55421;51.600;5.718;2023-06-22T10:40:15;227594.80;;;23.40
68440;BMP180;55421;51.600;5.718;2023-06-22T10:42:42;227630.20;;;23.40
68440;BMP180;55421;51.600;5.718;2023-06-22T10:45:09;227660.59;;;23.50
68440;BMP180;55421;51.600;5.718;2023-06-22T10:47:35;227673.41;;;23.50
68440;BMP180;55421;51.600;5.718;2023-06-22T10:50:03;227695.41;;;23.60
68440;BMP180;55421;51.600;5.718;2023-06-22T10:52:30;227704.20;;;23.60
68440;BMP180;55421;51.600;5.718;2023-06-22T10:54:57;227719.41;;;23.60
68440;BMP180;55421;51.600;5.718;2023-06-22T10:57:24;227726.20;;;23.60
68440;BMP180;55421;51.600;5.718;2023-06-22T10:59:50;227730.59;;;23.60
68440;BMP180;55421;51.600;5.718;2023-06-22T11:02:17;227720.20;;;23.60
68440;BMP180;55421;51.600;5.718;2023-06-22T11:04:43;227709.41;;;23.60
68440;BMP180;55421;51.600;5.718;2023-06-22T11:07:10;227706.20;;;23.60
68440;BMP180;55421;51.600;5.718;2023-06-22T11:09:36;227684.59;;;23.50
68440;BMP180;55421;51.600;5.718;2023-06-22T11:12:05;227678.20;;;23.50
68440;BMP180;55421;51.600;5.718;2023-06-22T11:14:32;227645.00;;;23.50
68440;BMP180;55421;51.600;5.718;2023-06-22T11:16:59;227586.80;;;23.38
68440;BMP180;55421;51.600;5.718;2023-06-22T11:19:26;227514.41;;;23.20
68440;BMP180;55421;51.600;5.718;2023-06-22T11:21:53;227455.80;;;23.10
68440;BMP180;55421;51.600;5.718;2023-06-22T11:24:19;227421.41;;;23.10
68440;BMP180;55421;51.600;5.718;2023-06-22T11:26:46;227398.00;;;23.00
68440;BMP180;55421;51.600;5.718;2023-06-22T11:29:12;227330.80;;;22.90
68440;BMP180;55421;51.600;5.718;2023-06-22T11:31:39;227273.59;;;22.80
68440;BMP180;55421;51.600;5.718;2023-06-22T11:34:05;227225.20;;;22.70
68440;BMP180;55421;51.600;5.718;2023-06-22T11:36:31;227116.59;;;22.52
68440;BMP180;55421;51.600;5.718;2023-06-22T11:38:59;226974.00;;;22.30
68440;BMP180;55421;51.600;5.718;2023-06-22T11:41:26;226888.20;;;22.10
68440;BMP180;55421;51.600;5.718;2023-06-22T11:43:52;226833.41;;;22.00
68440;BMP180;55421;51.600;5.718;2023-06-22T11:46:19;226809.41;;;22.00
68440;BMP180;55421;51.600;5.718;2023-06-22T11:48:46;226802.59;;;22.00
68440;BMP180;55421;51.600;5.718;2023-06-22T11:51:12;226814.20;;;22.00
68440;BMP180;55421;51.600;5.718;2023-06-22T11:53:39;226831.80;;;22.00
68440;BMP180;55421;51.600;5.718;2023-06-22T11:56:05;226815.80;;;22.00
68440;BMP180;55421;51.600;5.718;2023-06-22T11:58:32;226769.59;;;21.90
68440;BMP180;55421;51.600;5.718;2023-06-22T12:00:58;226732.20;;;21.90
68440;BMP180;55421;51.600;5.718;2023-06-22T12:03:25;226710.59;;;21.80
68440;BMP180;55421;51.600;5.718;2023-06-22T12:05:51;226668.59;;;21.72
68440;BMP180;55421;51.600;5.718;2023-06-22T12:08:18;226612.80;;;21.60
68440;BMP180;55421;51.600;5.718;2023-06-22T12:10:45;226553.59;;;21.50
68440;BMP180;55421;51.600;5.718;2023-06-22T12:13:12;226491.59;;;21.40
68440;BMP180;55421;51.600;5.718;2023-06-22T12:15:39;226437.80;;;21.30
68440;BMP180;55421;51.600;5.718;2023-06-22T12:18:05;226419.20;;;21.30
68440;BMP180;55421;51.600;5.718;2023-06-22T12:20:32;226424.80;;;21.30
68440;BMP180;55421;51.600;5.718;2023-06-22T12:22:58;226423.59;;;21.30
68440;BMP180;55421;51.600;5.718;2023-06-22T12:25:25;226433.59;;;21.30
68440;BMP180;55421;51.600;5.718;2023-06-22T12:27:51;226465.80;;;21.40
68440;BMP180;55421;51.600;5.718;2023-06-22T12:30:18;226499.59;;;21.42
68440;BMP180;55421;51.600;5.718;2023-06-22T12:32:44;226510.41;;;21.46
68440;BMP180;55421;51.600;5.718;2023-06-22T12:35:11;226505.20;;;21.42
68440;BMP180;55421;51.600;5.718;2023-06-22T12:37:41;226505.59;;;21.42
68440;BMP180;55421;51.600;5.718;2023-06-22T12:40:10;226491.00;;;21.40
68440;BMP180;55421;51.600;5.718;2023-06-22T12:42:37;226485.59;;;21.40
68440;BMP180;55421;51.600;5.718;2023-06-22T12:45:04;226487.20;;;21.40
68440;BMP180;55421;51.600;5.718;2023-06-22T12:47:31;226478.59;;;21.40
68440;BMP180;55421;51.600;5.718;2023-06-22T12:49:57;226464.20;;;21.40
68440;BMP180;55421;51.600;5.718;2023-06-22T12:52:24;226453.20;;;21.40
68440;BMP180;55421;51.600;5.718;2023-06-22T12:54:51;226432.00;;;21.30
68440;BMP180;55421;51.600;5.718;2023-06-22T12:57:18;226425.59;;;21.30
68440;BMP180;55421;51.600;5.718;2023-06-22T12:59:46;226416.00;;;21.30
68440;BMP180;55421;51.600;5.718;2023-06-22T13:02:12;226414.00;;;21.30
68440;BMP180;55421;51.600;5.718;2023-06-22T13:04:39;226687.59;;;21.30
68440;BMP180;55421;51.600;5.718;2023-06-22T13:07:06;226573.20;;;21.32
68440;BMP180;55421;51.600;5.718;2023-06-22T13:09:32;227653.59;;;21.34
68440;BMP180;55421;51.600;5.718;2023-06-22T13:12:01;230235.59;;;21.34
68440;BMP180;55421;51.600;5.718;2023-06-22T13:14:27;233676.41;;;21.40
68440;BMP180;55421;51.600;5.718;2023-06-22T13:16:54;236848.41;;;21.40
68440;BMP180;55421;51.600;5.718;2023-06-22T13:19:20;239473.59;;;21.40
68440;BMP180;55421;51.600;5.718;2023-06-22T13:21:47;238215.59;;;21.30
68440;BMP180;55421;51.600;5.718;2023-06-22T13:24:13;239273.80;;;21.30
68440;BMP180;55421;51.600;5.718;2023-06-22T13:26:40;240372.00;;;21.30
68440;BMP180;55421;51.600;5.718;2023-06-22T13:29:06;240715.59;;;21.20
68440;BMP180;55421;51.600;5.718;2023-06-22T13:31:33;241641.41;;;21.20
68440;BMP180;55421;51.600;5.718;2023-06-22T13:33:59;240859.41;;;21.20
68440;BMP180;55421;51.600;5.718;2023-06-22T13:36:26;242355.00;;;21.20
68440;BMP180;55421;51.600;5.718;2023-06-22T13:38:52;246326.59;;;21.10
68440;BMP180;55421;51.600;5.718;2023-06-22T13:41:19;103173.40;;;21.10
68440;BMP180;55421;51.600;5.718;2023-06-22T13:43:45;104079.80;;;21.20
68440;BMP180;55421;51.600;5.718;2023-06-22T13:46:12;13544.00;;;21.20
68440;BMP180;55421;51.600;5.718;2023-06-22T13:48:38;23640.20;;;21.20
68440;BMP180;55421;51.600;5.718;2023-06-22T13:51:05;21580.40;;;21.20
68440;BMP180;55421;51.600;5.718;2023-06-22T13:53:31;31280.60;;;21.20
68440;BMP180;55421;51.600;5.718;2023-06-22T13:55:58;33642.80;;;21.24
68440;BMP180;55421;51.600;5.718;2023-06-22T13:58:24;40196.40;;;21.20
68440;BMP180;55421;51.600;5.718;2023-06-22T14:00:51;47075.60;;;21.20